sensor_id;sensor_type;location;lat;lon;timestamp;P1;durP1;ratioP1;P2;durP2;ratioP2
12482;SDS011;6306;47.134;15.344;2022-09-28T00:01:49;1.00;;;0.83;;
12482;SDS011;6306;47.134;15.344;2022-09-28T00:04:16;1.03;;;0.80;;
12482;SDS011;6306;47.134;15.344;2022-09-28T00:06:42;1.33;;;0.83;;
12482;SDS011;6306;47.134;15.344;2022-09-28T00:09:08;1.43;;;1.13;;
12482;SDS011;6306;47.134;15.344;2022-09-28T00:11:34;1.70;;;0.73;;
12482;SDS011;6306;47.134;15.344;2022-09-28T00:14:00;2.40;;;0.80;;
12482;SDS011;6306;47.134;15.344;2022-09-28T00:16:34;0.97;;;0.90;;
12482;SDS011;6306;47.134;15.344;2022-09-28T00:19:01;1.10;;;1.10;;
12482;SDS011;6306;47.134;15.344;2022-09-28T00:21:30;2.17;;;0.80;;
12482;SDS011;6306;47.134;15.344;2022-09-28T00:23:57;2.57;;;1.20;;
12482;SDS011;6306;47.134;15.344;2022-09-28T00:26:36;1.50;;;1.27;;
12482;SDS011;6306;47.134;15.344;2022-09-28T00:29:03;4.00;;;1.00;;
12482;SDS011;6306;47.134;15.344;2022-09-28T00:31:30;2.50;;;1.23;;
12482;SDS011;6306;47.134;15.344;2022-09-28T00:33:56;1.73;;;0.90;;
12482;SDS011;6306;47.134;15.344;2022-09-28T00:36:24;0.93;;;0.93;;
12482;SDS011;6306;47.134;15.344;2022-09-28T00:38:56;1.40;;;1.30;;
12482;SDS011;6306;47.134;15.344;2022-09-28T00:41:23;1.50;;;1.00;;
12482;SDS011;6306;47.134;15.344;2022-09-28T00:43:50;0.73;;;0.70;;
12482;SDS011;6306;47.134;15.344;2022-09-28T00:49:13;1.27;;;0.93;;
12482;SDS011;6306;47.134;15.344;2022-09-28T00:51:39;0.87;;;0.83;;
12482;SDS011;6306;47.134;15.344;2022-09-28T00:54:07;1.30;;;1.20;;
12482;SDS011;6306;47.134;15.344;2022-09-28T00:56:34;1.00;;;0.90;;
12482;SDS011;6306;47.134;15.344;2022-09-28T00:59:02;1.27;;;1.17;;
12482;SDS011;6306;47.134;15.344;2022-09-28T01:01:28;0.93;;;0.80;;
12482;SDS011;6306;47.134;15.344;2022-09-28T01:03:56;1.00;;;0.97;;
12482;SDS011;6306;47.134;15.344;2022-09-28T01:06:23;1.43;;;1.23;;
12482;SDS011;6306;47.134;15.344;2022-09-28T01:08:51;0.87;;;0.70;;
12482;SDS011;6306;47.134;15.344;2022-09-28T01:11:19;2.60;;;0.83;;
12482;SDS011;6306;47.134;15.344;2022-09-28T01:13:45;0.80;;;0.80;;
12482;SDS011;6306;47.134;15.344;2022-09-28T01:21:22;1.87;;;1.30;;
12482;SDS011;6306;47.134;15.344;2022-09-28T01:24:11;1.10;;;0.67;;
12482;SDS011;6306;47.134;15.344;2022-09-28T01:34:42;0.97;;;0.83;;
12482;SDS011;6306;47.134;15.344;2022-09-28T01:37:08;2.07;;;1.00;;
12482;SDS011;6306;47.134;15.344;2022-09-28T01:39:41;4.63;;;1.00;;
12482;SDS011;6306;47.134;15.344;2022-09-28T01:42:14;1.00;;;1.00;;
12482;SDS011;6306;47.134;15.344;2022-09-28T01:44:42;1.73;;;1.30;;
12482;SDS011;6306;47.134;15.344;2022-09-28T01:47:10;1.47;;;1.17;;
12482;SDS011;6306;47.134;15.344;2022-09-28T01:49:39;3.10;;;1.40;;
12482;SDS011;6306;47.134;15.344;2022-09-28T01:54:36;1.20;;;0.70;;
12482;SDS011;6306;47.134;15.344;2022-09-28T01:59:39;0.93;;;0.90;;
12482;SDS011;6306;47.134;15.344;2022-09-28T02:02:11;2.30;;;0.80;;
12482;SDS011;6306;47.134;15.344;2022-09-28T02:04:40;1.10;;;0.80;;
12482;SDS011;6306;47.134;15.344;2022-09-28T02:09:47;1.30;;;1.00;;
12482;SDS011;6306;47.134;15.344;2022-09-28T02:12:17;2.63;;;1.27;;
12482;SDS011;6306;47.134;15.344;2022-09-28T02:14:45;1.13;;;1.03;;
12482;SDS011;6306;47.134;15.344;2022-09-28T02:17:13;1.67;;;0.80;;
12482;SDS011;6306;47.134;15.344;2022-09-28T02:19:40;1.23;;;1.13;;
12482;SDS011;6306;47.134;15.344;2022-09-28T02:24:36;2.10;;;0.90;;
12482;SDS011;6306;47.134;15.344;2022-09-28T02:27:06;2.20;;;1.23;;
12482;SDS011;6306;47.134;15.344;2022-09-28T02:29:34;0.80;;;0.80;;
12482;SDS011;6306;47.134;15.344;2022-09-28T02:32:00;2.23;;;0.97;;
12482;SDS011;6306;47.134;15.344;2022-09-28T02:34:26;3.07;;;1.10;;
12482;SDS011;6306;47.134;15.344;2022-09-28T02:36:52;1.03;;;0.97;;
12482;SDS011;6306;47.134;15.344;2022-09-28T02:39:19;2.53;;;1.03;;
12482;SDS011;6306;47.134;15.344;2022-09-28T02:46:59;3.00;;;1.07;;
12482;SDS011;6306;47.134;15.344;2022-09-28T02:52:24;0.83;;;0.83;;
12482;SDS011;6306;47.134;15.344;2022-09-28T03:02:34;6.23;;;1.10;;
12482;SDS011;6306;47.134;15.344;2022-09-28T03:05:09;0.67;;;0.67;;
12482;SDS011;6306;47.134;15.344;2022-09-28T03:13:00;1.13;;;0.90;;
12482;SDS011;6306;47.134;15.344;2022-09-28T03:15:27;1.33;;;1.13;;
12482;SDS011;6306;47.134;15.344;2022-09-28T03:17:54;1.60;;;1.00;;
12482;SDS011;6306;47.134;15.344;2022-09-28T03:20:20;1.10;;;0.97;;
12482;SDS011;6306;47.134;15.344;2022-09-28T03:22:46;1.03;;;0.97;;
12482;SDS011;6306;47.134;15.344;2022-09-28T03:25:12;1.40;;;1.30;;
12482;SDS011;6306;47.134;15.344;2022-09-28T03:27:40;1.13;;;0.80;;
12482;SDS011;6306;47.134;15.344;2022-09-28T03:30:06;2.00;;;0.90;;
12482;SDS011;6306;47.134;15.344;2022-09-28T03:32:32;0.93;;;0.90;;
12482;SDS011;6306;47.134;15.344;2022-09-28T03:34:58;2.27;;;1.40;;
12482;SDS011;6306;47.134;15.344;2022-09-28T03:37:25;2.87;;;1.67;;
12482;SDS011;6306;47.134;15.344;2022-09-28T03:39:51;2.37;;;1.50;;
12482;SDS011;6306;47.134;15.344;2022-09-28T03:42:17;2.73;;;1.37;;
12482;SDS011;6306;47.134;15.344;2022-09-28T03:44:43;3.10;;;1.43;;
12482;SDS011;6306;47.134;15.344;2022-09-28T03:47:09;3.83;;;1.70;;
12482;SDS011;6306;47.134;15.344;2022-09-28T03:49:35;7.10;;;2.37;;
12482;SDS011;6306;47.134;15.344;2022-09-28T03:52:01;1.77;;;1.20;;
12482;SDS011;6306;47.134;15.344;2022-09-28T03:54:28;1.20;;;1.10;;
12482;SDS011;6306;47.134;15.344;2022-09-28T03:56:54;2.23;;;1.53;;
12482;SDS011;6306;47.134;15.344;2022-09-28T03:59:20;2.17;;;1.27;;
12482;SDS011;6306;47.134;15.344;2022-09-28T04:01:49;3.23;;;1.23;;
12482;SDS011;6306;47.134;15.344;2022-09-28T04:04:15;1.60;;;1.23;;
12482;SDS011;6306;47.134;15.344;2022-09-28T04:06:41;0.90;;;0.90;;
12482;SDS011;6306;47.134;15.344;2022-09-28T04:09:07;3.23;;;2.00;;
12482;SDS011;6306;47.134;15.344;2022-09-28T04:11:33;1.40;;;1.30;;
12482;SDS011;6306;47.134;15.344;2022-09-28T04:13:59;2.07;;;1.57;;
12482;SDS011;6306;47.134;15.344;2022-09-28T04:16:26;2.00;;;1.80;;
12482;SDS011;6306;47.134;15.344;2022-09-28T04:18:52;6.27;;;2.10;;
12482;SDS011;6306;47.134;15.344;2022-09-28T04:21:18;2.97;;;1.97;;
12482;SDS011;6306;47.134;15.344;2022-09-28T04:23:45;1.70;;;1.60;;
12482;SDS011;6306;47.134;15.344;2022-09-28T04:26:16;3.30;;;1.90;;
12482;SDS011;6306;47.134;15.344;2022-09-28T04:28:44;2.83;;;1.80;;
12482;SDS011;6306;47.134;15.344;2022-09-28T04:31:29;7.93;;;2.53;;
12482;SDS011;6306;47.134;15.344;2022-09-28T04:33:56;3.10;;;2.20;;
12482;SDS011;6306;47.134;15.344;2022-09-28T04:36:22;2.13;;;1.83;;
12482;SDS011;6306;47.134;15.344;2022-09-28T04:38:50;4.50;;;2.30;;
12482;SDS011;6306;47.134;15.344;2022-09-28T04:41:16;1.63;;;1.50;;
12482;SDS011;6306;47.134;15.344;2022-09-28T04:43:42;3.07;;;1.80;;
12482;SDS011;6306;47.134;15.344;2022-09-28T04:46:08;2.50;;;2.23;;
12482;SDS011;6306;47.134;15.344;2022-09-28T04:48:36;2.63;;;1.70;;
12482;SDS011;6306;47.134;15.344;2022-09-28T04:51:02;3.40;;;1.60;;
12482;SDS011;6306;47.134;15.344;2022-09-28T04:53:28;1.57;;;1.40;;
12482;SDS011;6306;47.134;15.344;2022-09-28T04:58:20;1.63;;;1.50;;
12482;SDS011;6306;47.134;15.344;2022-09-28T05:00:47;1.40;;;1.30;;
12482;SDS011;6306;47.134;15.344;2022-09-28T05:03:15;7.90;;;1.60;;
12482;SDS011;6306;47.134;15.344;2022-09-28T05:05:44;2.03;;;1.50;;
12482;SDS011;6306;47.134;15.344;2022-09-28T05:08:11;2.27;;;1.60;;
12482;SDS011;6306;47.134;15.344;2022-09-28T05:10:37;1.80;;;1.60;;
12482;SDS011;6306;47.134;15.344;2022-09-28T05:13:06;2.10;;;1.60;;
12482;SDS011;6306;47.134;15.344;2022-09-28T05:15:35;2.47;;;2.00;;
12482;SDS011;6306;47.134;15.344;2022-09-28T05:18:02;2.00;;;1.80;;
12482;SDS011;6306;47.134;15.344;2022-09-28T05:20:28;4.60;;;1.67;;
12482;SDS011;6306;47.134;15.344;2022-09-28T05:22:54;3.60;;;2.57;;
12482;SDS011;6306;47.134;15.344;2022-09-28T05:25:20;3.60;;;2.57;;
12482;SDS011;6306;47.134;15.344;2022-09-28T05:27:46;4.60;;;2.57;;
12482;SDS011;6306;47.134;15.344;2022-09-28T05:30:12;3.50;;;2.30;;
12482;SDS011;6306;47.134;15.344;2022-09-28T05:32:42;4.00;;;2.70;;
12482;SDS011;6306;47.134;15.344;2022-09-28T05:35:09;7.17;;;3.40;;
12482;SDS011;6306;47.134;15.344;2022-09-28T05:37:35;5.93;;;3.30;;
12482;SDS011;6306;47.134;15.344;2022-09-28T05:40:02;4.53;;;2.77;;
12482;SDS011;6306;47.134;15.344;2022-09-28T05:42:28;3.60;;;3.30;;
12482;SDS011;6306;47.134;15.344;2022-09-28T05:44:54;5.70;;;3.30;;
12482;SDS011;6306;47.134;15.344;2022-09-28T05:47:23;8.27;;;3.60;;
12482;SDS011;6306;47.134;15.344;2022-09-28T05:49:49;5.30;;;4.27;;
12482;SDS011;6306;47.134;15.344;2022-09-28T05:52:16;4.63;;;2.80;;
12482;SDS011;6306;47.134;15.344;2022-09-28T05:54:42;3.87;;;2.77;;
12482;SDS011;6306;47.134;15.344;2022-09-28T05:57:08;5.10;;;2.70;;
12482;SDS011;6306;47.134;15.344;2022-09-28T05:59:34;2.40;;;2.20;;
12482;SDS011;6306;47.134;15.344;2022-09-28T06:02:00;4.20;;;2.50;;
12482;SDS011;6306;47.134;15.344;2022-09-28T06:04:26;8.10;;;3.03;;
12482;SDS011;6306;47.134;15.344;2022-09-28T06:06:53;3.73;;;2.93;;
12482;SDS011;6306;47.134;15.344;2022-09-28T06:09:19;3.33;;;2.40;;
12482;SDS011;6306;47.134;15.344;2022-09-28T06:11:45;6.77;;;2.83;;
12482;SDS011;6306;47.134;15.344;2022-09-28T06:14:12;3.47;;;2.80;;
12482;SDS011;6306;47.134;15.344;2022-09-28T06:16:38;3.17;;;2.87;;
12482;SDS011;6306;47.134;15.344;2022-09-28T06:19:04;3.10;;;2.37;;
12482;SDS011;6306;47.134;15.344;2022-09-28T06:21:30;6.20;;;3.03;;
12482;SDS011;6306;47.134;15.344;2022-09-28T06:23:56;2.87;;;2.60;;
12482;SDS011;6306;47.134;15.344;2022-09-28T06:26:22;4.10;;;2.90;;
12482;SDS011;6306;47.134;15.344;2022-09-28T06:28:48;4.27;;;2.63;;
12482;SDS011;6306;47.134;15.344;2022-09-28T06:31:14;9.50;;;3.10;;
12482;SDS011;6306;47.134;15.344;2022-09-28T06:33:41;7.27;;;3.67;;
12482;SDS011;6306;47.134;15.344;2022-09-28T06:36:10;2.90;;;2.40;;
12482;SDS011;6306;47.134;15.344;2022-09-28T06:38:36;4.20;;;3.00;;
12482;SDS011;6306;47.134;15.344;2022-09-28T06:41:02;3.60;;;3.17;;
12482;SDS011;6306;47.134;15.344;2022-09-28T06:43:28;3.10;;;2.60;;
12482;SDS011;6306;47.134;15.344;2022-09-28T06:45:54;6.13;;;2.53;;
12482;SDS011;6306;47.134;15.344;2022-09-28T06:48:20;3.17;;;2.80;;
12482;SDS011;6306;47.134;15.344;2022-09-28T06:50:46;2.50;;;2.27;;
12482;SDS011;6306;47.134;15.344;2022-09-28T06:53:12;3.20;;;2.90;;
12482;SDS011;6306;47.134;15.344;2022-09-28T06:55:39;11.20;;;3.00;;
12482;SDS011;6306;47.134;15.344;2022-09-28T06:58:08;5.27;;;3.17;;
12482;SDS011;6306;47.134;15.344;2022-09-28T07:00:35;7.87;;;2.60;;
12482;SDS011;6306;47.134;15.344;2022-09-28T07:03:01;3.03;;;2.47;;
12482;SDS011;6306;47.134;15.344;2022-09-28T07:05:27;2.93;;;2.73;;
12482;SDS011;6306;47.134;15.344;2022-09-28T07:07:56;4.43;;;2.47;;
12482;SDS011;6306;47.134;15.344;2022-09-28T07:10:23;4.37;;;2.50;;
12482;SDS011;6306;47.134;15.344;2022-09-28T07:12:50;8.57;;;2.40;;
12482;SDS011;6306;47.134;15.344;2022-09-28T07:15:16;2.47;;;2.33;;
12482;SDS011;6306;47.134;15.344;2022-09-28T07:17:42;4.27;;;2.50;;
12482;SDS011;6306;47.134;15.344;2022-09-28T07:20:08;3.93;;;2.60;;
12482;SDS011;6306;47.134;15.344;2022-09-28T07:22:34;4.53;;;2.50;;
12482;SDS011;6306;47.134;15.344;2022-09-28T07:25:00;3.13;;;2.30;;
12482;SDS011;6306;47.134;15.344;2022-09-28T07:27:26;5.37;;;3.30;;
12482;SDS011;6306;47.134;15.344;2022-09-28T07:29:52;4.73;;;2.13;;
12482;SDS011;6306;47.134;15.344;2022-09-28T07:32:19;3.77;;;2.63;;
12482;SDS011;6306;47.134;15.344;2022-09-28T07:34:45;4.43;;;3.20;;
12482;SDS011;6306;47.134;15.344;2022-09-28T07:37:12;2.90;;;2.70;;
12482;SDS011;6306;47.134;15.344;2022-09-28T07:39:38;3.03;;;2.60;;
12482;SDS011;6306;47.134;15.344;2022-09-28T07:42:24;2.10;;;1.90;;
12482;SDS011;6306;47.134;15.344;2022-09-28T07:44:54;5.90;;;2.60;;
12482;SDS011;6306;47.134;15.344;2022-09-28T07:47:20;4.87;;;2.90;;
12482;SDS011;6306;47.134;15.344;2022-09-28T07:49:51;4.43;;;3.13;;
12482;SDS011;6306;47.134;15.344;2022-09-28T07:52:19;4.97;;;2.87;;
12482;SDS011;6306;47.134;15.344;2022-09-28T07:54:47;3.73;;;2.60;;
12482;SDS011;6306;47.134;15.344;2022-09-28T07:57:16;4.87;;;3.30;;
12482;SDS011;6306;47.134;15.344;2022-09-28T07:59:42;4.40;;;2.87;;
12482;SDS011;6306;47.134;15.344;2022-09-28T08:02:09;3.43;;;3.13;;
12482;SDS011;6306;47.134;15.344;2022-09-28T08:04:35;4.50;;;3.60;;
12482;SDS011;6306;47.134;15.344;2022-09-28T08:07:01;3.67;;;2.57;;
12482;SDS011;6306;47.134;15.344;2022-09-28T08:09:27;3.20;;;2.90;;
12482;SDS011;6306;47.134;15.344;2022-09-28T08:11:53;3.60;;;2.90;;
12482;SDS011;6306;47.134;15.344;2022-09-28T08:14:19;5.80;;;2.83;;
12482;SDS011;6306;47.134;15.344;2022-09-28T08:16:46;5.40;;;2.40;;
12482;SDS011;6306;47.134;15.344;2022-09-28T08:19:11;6.13;;;2.43;;
12482;SDS011;6306;47.134;15.344;2022-09-28T08:21:37;3.87;;;2.87;;
12482;SDS011;6306;47.134;15.344;2022-09-28T08:24:13;3.10;;;2.50;;
12482;SDS011;6306;47.134;15.344;2022-09-28T08:26:39;3.60;;;2.60;;
12482;SDS011;6306;47.134;15.344;2022-09-28T08:29:06;3.47;;;2.60;;
12482;SDS011;6306;47.134;15.344;2022-09-28T08:31:32;3.37;;;2.57;;
12482;SDS011;6306;47.134;15.344;2022-09-28T08:33:58;3.47;;;3.17;;
12482;SDS011;6306;47.134;15.344;2022-09-28T08:36:24;3.57;;;2.60;;
12482;SDS011;6306;47.134;15.344;2022-09-28T08:38:50;4.50;;;3.30;;
12482;SDS011;6306;47.134;15.344;2022-09-28T08:41:17;2.47;;;2.27;;
12482;SDS011;6306;47.134;15.344;2022-09-28T08:46:14;2.00;;;1.87;;
12482;SDS011;6306;47.134;15.344;2022-09-28T08:51:44;2.63;;;1.93;;
12482;SDS011;6306;47.134;15.344;2022-09-28T08:54:26;3.13;;;1.77;;
12482;SDS011;6306;47.134;15.344;2022-09-28T08:57:11;2.23;;;1.87;;
12482;SDS011;6306;47.134;15.344;2022-09-28T08:59:54;2.03;;;1.70;;
12482;SDS011;6306;47.134;15.344;2022-09-28T09:02:25;2.40;;;1.60;;
12482;SDS011;6306;47.134;15.344;2022-09-28T09:04:52;1.53;;;1.37;;
12482;SDS011;6306;47.134;15.344;2022-09-28T09:07:42;2.57;;;1.80;;
12482;SDS011;6306;47.134;15.344;2022-09-28T09:18:17;1.43;;;1.30;;
12482;SDS011;6306;47.134;15.344;2022-09-28T09:20:56;1.40;;;1.30;;
12482;SDS011;6306;47.134;15.344;2022-09-28T09:26:11;1.20;;;1.10;;
12482;SDS011;6306;47.134;15.344;2022-09-28T09:28:44;1.50;;;1.37;;
12482;SDS011;6306;47.134;15.344;2022-09-28T09:46:09;7.53;;;2.67;;
12482;SDS011;6306;47.134;15.344;2022-09-28T09:51:03;9.80;;;3.30;;
12482;SDS011;6306;47.134;15.344;2022-09-28T09:53:40;4.60;;;2.53;;
12482;SDS011;6306;47.134;15.344;2022-09-28T09:58:36;4.47;;;3.33;;
12482;SDS011;6306;47.134;15.344;2022-09-28T10:01:06;6.47;;;4.20;;
12482;SDS011;6306;47.134;15.344;2022-09-28T10:03:33;10.63;;;4.10;;
12482;SDS011;6306;47.134;15.344;2022-09-28T10:06:01;6.53;;;3.90;;
12482;SDS011;6306;47.134;15.344;2022-09-28T10:08:28;6.97;;;4.07;;
12482;SDS011;6306;47.134;15.344;2022-09-28T10:13:25;5.67;;;4.90;;
12482;SDS011;6306;47.134;15.344;2022-09-28T10:15:53;6.70;;;4.67;;
12482;SDS011;6306;47.134;15.344;2022-09-28T10:18:20;5.20;;;3.53;;
12482;SDS011;6306;47.134;15.344;2022-09-28T10:20:46;5.67;;;3.80;;
12482;SDS011;6306;47.134;15.344;2022-09-28T10:23:16;8.23;;;5.50;;
12482;SDS011;6306;47.134;15.344;2022-09-28T10:25:47;9.47;;;3.70;;
12482;SDS011;6306;47.134;15.344;2022-09-28T10:28:32;5.87;;;4.17;;
12482;SDS011;6306;47.134;15.344;2022-09-28T10:30:58;13.53;;;4.50;;
12482;SDS011;6306;47.134;15.344;2022-09-28T10:33:26;6.07;;;4.07;;
12482;SDS011;6306;47.134;15.344;2022-09-28T10:35:53;5.33;;;4.43;;
12482;SDS011;6306;47.134;15.344;2022-09-28T10:38:19;9.87;;;3.97;;
12482;SDS011;6306;47.134;15.344;2022-09-28T10:40:48;5.60;;;4.00;;
12482;SDS011;6306;47.134;15.344;2022-09-28T10:43:16;4.77;;;4.37;;
12482;SDS011;6306;47.134;15.344;2022-09-28T10:45:43;6.00;;;4.33;;
12482;SDS011;6306;47.134;15.344;2022-09-28T10:48:14;4.00;;;3.30;;
12482;SDS011;6306;47.134;15.344;2022-09-28T10:50:41;5.23;;;3.57;;
12482;SDS011;6306;47.134;15.344;2022-09-28T10:53:25;6.27;;;4.73;;
12482;SDS011;6306;47.134;15.344;2022-09-28T10:55:55;7.03;;;4.43;;
12482;SDS011;6306;47.134;15.344;2022-09-28T10:58:26;14.53;;;4.73;;
12482;SDS011;6306;47.134;15.344;2022-09-28T11:00:57;4.63;;;3.77;;
12482;SDS011;6306;47.134;15.344;2022-09-28T11:03:25;5.50;;;3.90;;
12482;SDS011;6306;47.134;15.344;2022-09-28T11:05:53;4.00;;;3.57;;
12482;SDS011;6306;47.134;15.344;2022-09-28T11:08:29;4.00;;;3.30;;
12482;SDS011;6306;47.134;15.344;2022-09-28T11:11:03;7.23;;;3.70;;
12482;SDS011;6306;47.134;15.344;2022-09-28T11:13:30;3.10;;;2.80;;
12482;SDS011;6306;47.134;15.344;2022-09-28T11:15:57;2.87;;;2.67;;
12482;SDS011;6306;47.134;15.344;2022-09-28T11:18:26;4.00;;;3.00;;
12482;SDS011;6306;47.134;15.344;2022-09-28T11:23:57;4.00;;;2.57;;
12482;SDS011;6306;47.134;15.344;2022-09-28T11:26:25;6.53;;;5.37;;
12482;SDS011;6306;47.134;15.344;2022-09-28T11:28:51;2.73;;;2.10;;
12482;SDS011;6306;47.134;15.344;2022-09-28T11:31:23;4.83;;;2.40;;
12482;SDS011;6306;47.134;15.344;2022-09-28T11:33:50;4.17;;;2.53;;
12482;SDS011;6306;47.134;15.344;2022-09-28T11:36:38;3.07;;;2.33;;
12482;SDS011;6306;47.134;15.344;2022-09-28T11:39:21;4.07;;;2.50;;
12482;SDS011;6306;47.134;15.344;2022-09-28T11:44:24;2.60;;;2.30;;
12482;SDS011;6306;47.134;15.344;2022-09-28T11:49:29;1.70;;;1.60;;
12482;SDS011;6306;47.134;15.344;2022-09-28T11:51:59;2.07;;;1.87;;
12482;SDS011;6306;47.134;15.344;2022-09-28T11:54:26;1.77;;;1.67;;
12482;SDS011;6306;47.134;15.344;2022-09-28T11:56:55;3.97;;;1.90;;
12482;SDS011;6306;47.134;15.344;2022-09-28T11:59:27;2.43;;;2.23;;
12482;SDS011;6306;47.134;15.344;2022-09-28T12:01:57;4.00;;;1.90;;
12482;SDS011;6306;47.134;15.344;2022-09-28T12:04:39;3.80;;;2.17;;
12482;SDS011;6306;47.134;15.344;2022-09-28T12:07:28;2.37;;;1.97;;
12482;SDS011;6306;47.134;15.344;2022-09-28T12:09:53;2.63;;;1.50;;
12482;SDS011;6306;47.134;15.344;2022-09-28T12:12:34;2.03;;;1.67;;
12482;SDS011;6306;47.134;15.344;2022-09-28T12:15:24;3.80;;;2.07;;
12482;SDS011;6306;47.134;15.344;2022-09-28T12:17:59;2.50;;;2.13;;
12482;SDS011;6306;47.134;15.344;2022-09-28T12:20:28;2.00;;;1.60;;
12482;SDS011;6306;47.134;15.344;2022-09-28T12:25:24;1.50;;;1.40;;
12482;SDS011;6306;47.134;15.344;2022-09-28T12:27:52;2.30;;;1.40;;
12482;SDS011;6306;47.134;15.344;2022-09-28T12:30:20;3.50;;;2.43;;
12482;SDS011;6306;47.134;15.344;2022-09-28T12:32:57;1.63;;;1.53;;
12482;SDS011;6306;47.134;15.344;2022-09-28T12:56:30;2.63;;;2.03;;
12482;SDS011;6306;47.134;15.344;2022-09-28T13:09:20;3.40;;;1.77;;
12482;SDS011;6306;47.134;15.344;2022-09-28T13:14:56;2.50;;;2.20;;
12482;SDS011;6306;47.134;15.344;2022-09-28T13:17:26;2.10;;;1.83;;
12482;SDS011;6306;47.134;15.344;2022-09-28T13:19:57;3.40;;;1.87;;
12482;SDS011;6306;47.134;15.344;2022-09-28T13:24:50;1.57;;;1.47;;
12482;SDS011;6306;47.134;15.344;2022-09-28T13:27:21;2.70;;;2.00;;
12482;SDS011;6306;47.134;15.344;2022-09-28T13:29:49;2.10;;;1.93;;
12482;SDS011;6306;47.134;15.344;2022-09-28T13:32:16;2.70;;;2.00;;
12482;SDS011;6306;47.134;15.344;2022-09-28T13:34:44;1.93;;;1.83;;
12482;SDS011;6306;47.134;15.344;2022-09-28T13:44:54;3.90;;;1.70;;
12482;SDS011;6306;47.134;15.344;2022-09-28T13:47:32;5.73;;;2.50;;
12482;SDS011;6306;47.134;15.344;2022-09-28T13:52:39;5.97;;;2.60;;
12482;SDS011;6306;47.134;15.344;2022-09-28T13:57:39;2.67;;;2.47;;
12482;SDS011;6306;47.134;15.344;2022-09-28T14:02:48;3.67;;;2.17;;
12482;SDS011;6306;47.134;15.344;2022-09-28T14:10:23;3.90;;;2.47;;
12482;SDS011;6306;47.134;15.344;2022-09-28T14:13:08;3.60;;;2.67;;
12482;SDS011;6306;47.134;15.344;2022-09-28T14:18:22;3.30;;;2.37;;
12482;SDS011;6306;47.134;15.344;2022-09-28T14:28:46;2.90;;;2.00;;
12482;SDS011;6306;47.134;15.344;2022-09-28T14:31:25;3.07;;;2.60;;
12482;SDS011;6306;47.134;15.344;2022-09-28T14:33:52;2.83;;;2.23;;
12482;SDS011;6306;47.134;15.344;2022-09-28T14:36:23;4.23;;;1.97;;
12482;SDS011;6306;47.134;15.344;2022-09-28T14:39:18;2.40;;;2.10;;
12482;SDS011;6306;47.134;15.344;2022-09-28T14:42:07;3.30;;;1.97;;
12482;SDS011;6306;47.134;15.344;2022-09-28T14:52:53;3.30;;;2.40;;
12482;SDS011;6306;47.134;15.344;2022-09-28T14:55:25;2.13;;;2.03;;
12482;SDS011;6306;47.134;15.344;2022-09-28T14:57:54;5.23;;;3.00;;
12482;SDS011;6306;47.134;15.344;2022-09-28T15:00:21;3.43;;;2.90;;
12482;SDS011;6306;47.134;15.344;2022-09-28T15:02:50;11.43;;;2.17;;
12482;SDS011;6306;47.134;15.344;2022-09-28T15:05:23;2.40;;;2.23;;
12482;SDS011;6306;47.134;15.344;2022-09-28T15:07:52;2.60;;;2.20;;
12482;SDS011;6306;47.134;15.344;2022-09-28T15:10:31;2.90;;;2.40;;
12482;SDS011;6306;47.134;15.344;2022-09-28T15:13:02;2.57;;;1.93;;
12482;SDS011;6306;47.134;15.344;2022-09-28T15:18:01;2.50;;;2.30;;
12482;SDS011;6306;47.134;15.344;2022-09-28T15:20:29;3.60;;;2.47;;
12482;SDS011;6306;47.134;15.344;2022-09-28T15:22:57;5.50;;;2.40;;
12482;SDS011;6306;47.134;15.344;2022-09-28T15:25:25;2.87;;;2.67;;
12482;SDS011;6306;47.134;15.344;2022-09-28T15:27:52;2.70;;;2.50;;
12482;SDS011;6306;47.134;15.344;2022-09-28T15:30:20;2.70;;;2.03;;
12482;SDS011;6306;47.134;15.344;2022-09-28T15:32:47;2.50;;;2.30;;
12482;SDS011;6306;47.134;15.344;2022-09-28T15:35:20;2.43;;;2.23;;
12482;SDS011;6306;47.134;15.344;2022-09-28T15:37:47;1.87;;;1.60;;
12482;SDS011;6306;47.134;15.344;2022-09-28T15:40:16;1.63;;;1.53;;
12482;SDS011;6306;47.134;15.344;2022-09-28T15:42:43;2.10;;;1.83;;
12482;SDS011;6306;47.134;15.344;2022-09-28T15:47:37;4.60;;;4.20;;
12482;SDS011;6306;47.134;15.344;2022-09-28T15:50:05;6.40;;;4.90;;
12482;SDS011;6306;47.134;15.344;2022-09-28T15:55:00;2.60;;;2.27;;
12482;SDS011;6306;47.134;15.344;2022-09-28T15:57:27;1.83;;;1.70;;
12482;SDS011;6306;47.134;15.344;2022-09-28T15:59:54;4.83;;;2.70;;
12482;SDS011;6306;47.134;15.344;2022-09-28T16:02:23;3.23;;;3.00;;
12482;SDS011;6306;47.134;15.344;2022-09-28T16:04:51;2.90;;;2.27;;
12482;SDS011;6306;47.134;15.344;2022-09-28T16:12:57;4.10;;;2.57;;
12482;SDS011;6306;47.134;15.344;2022-09-28T16:15:31;2.70;;;1.90;;
12482;SDS011;6306;47.134;15.344;2022-09-28T16:17:59;4.93;;;2.50;;
12482;SDS011;6306;47.134;15.344;2022-09-28T16:20:27;3.93;;;2.40;;
12482;SDS011;6306;47.134;15.344;2022-09-28T16:22:55;4.80;;;2.53;;
12482;SDS011;6306;47.134;15.344;2022-09-28T16:25:24;2.90;;;2.23;;
12482;SDS011;6306;47.134;15.344;2022-09-28T16:27:52;2.73;;;2.53;;
12482;SDS011;6306;47.134;15.344;2022-09-28T16:30:23;3.47;;;2.57;;
12482;SDS011;6306;47.134;15.344;2022-09-28T16:35:28;2.57;;;2.37;;
12482;SDS011;6306;47.134;15.344;2022-09-28T16:37:59;4.33;;;3.00;;
12482;SDS011;6306;47.134;15.344;2022-09-28T16:40:25;2.30;;;2.10;;
12482;SDS011;6306;47.134;15.344;2022-09-28T16:42:53;2.90;;;2.67;;
12482;SDS011;6306;47.134;15.344;2022-09-28T16:45:20;2.80;;;2.60;;
12482;SDS011;6306;47.134;15.344;2022-09-28T16:47:49;2.90;;;2.53;;
12482;SDS011;6306;47.134;15.344;2022-09-28T16:50:17;5.90;;;3.13;;
12482;SDS011;6306;47.134;15.344;2022-09-28T16:52:43;10.33;;;2.63;;
12482;SDS011;6306;47.134;15.344;2022-09-28T16:55:28;4.63;;;3.80;;
12482;SDS011;6306;47.134;15.344;2022-09-28T16:57:54;9.10;;;3.00;;
12482;SDS011;6306;47.134;15.344;2022-09-28T17:00:22;2.80;;;2.50;;
12482;SDS011;6306;47.134;15.344;2022-09-28T17:02:49;2.90;;;2.70;;
12482;SDS011;6306;47.134;15.344;2022-09-28T17:05:15;2.97;;;2.30;;
12482;SDS011;6306;47.134;15.344;2022-09-28T17:07:43;4.20;;;2.53;;
12482;SDS011;6306;47.134;15.344;2022-09-28T17:10:17;3.10;;;2.80;;
12482;SDS011;6306;47.134;15.344;2022-09-28T17:12:45;2.70;;;1.90;;
12482;SDS011;6306;47.134;15.344;2022-09-28T17:15:11;3.03;;;2.80;;
12482;SDS011;6306;47.134;15.344;2022-09-28T17:17:39;2.70;;;2.50;;
12482;SDS011;6306;47.134;15.344;2022-09-28T17:20:16;3.90;;;3.50;;
12482;SDS011;6306;47.134;15.344;2022-09-28T17:22:44;3.57;;;3.17;;
12482;SDS011;6306;47.134;15.344;2022-09-28T17:25:10;4.40;;;3.80;;
12482;SDS011;6306;47.134;15.344;2022-09-28T17:27:37;8.60;;;5.00;;
12482;SDS011;6306;47.134;15.344;2022-09-28T17:30:03;4.27;;;2.57;;
12482;SDS011;6306;47.134;15.344;2022-09-28T17:32:31;5.83;;;2.63;;
12482;SDS011;6306;47.134;15.344;2022-09-28T17:34:58;3.50;;;2.30;;
12482;SDS011;6306;47.134;15.344;2022-09-28T17:37:24;2.50;;;2.00;;
12482;SDS011;6306;47.134;15.344;2022-09-28T17:39:50;3.67;;;2.30;;
12482;SDS011;6306;47.134;15.344;2022-09-28T17:42:16;3.90;;;2.40;;
12482;SDS011;6306;47.134;15.344;2022-09-28T17:44:42;3.87;;;2.87;;
12482;SDS011;6306;47.134;15.344;2022-09-28T17:47:08;2.20;;;1.97;;
12482;SDS011;6306;47.134;15.344;2022-09-28T17:49:34;6.13;;;5.53;;
12482;SDS011;6306;47.134;15.344;2022-09-28T17:52:01;5.50;;;4.17;;
12482;SDS011;6306;47.134;15.344;2022-09-28T17:54:29;4.70;;;4.03;;
12482;SDS011;6306;47.134;15.344;2022-09-28T17:56:55;5.27;;;4.00;;
12482;SDS011;6306;47.134;15.344;2022-09-28T17:59:20;3.73;;;2.73;;
12482;SDS011;6306;47.134;15.344;2022-09-28T18:01:46;2.23;;;2.03;;
12482;SDS011;6306;47.134;15.344;2022-09-28T18:04:12;2.97;;;2.27;;
12482;SDS011;6306;47.134;15.344;2022-09-28T18:06:40;4.63;;;2.30;;
12482;SDS011;6306;47.134;15.344;2022-09-28T18:09:06;2.67;;;2.23;;